sensor_id;sensor_type;location;lat;lon;timestamp;P1;durP1;ratioP1;P2;durP2;ratioP2
18206;SDS011;9229;52.354;20.886;2024-02-14T00:03:08;24.10;;;10.02;;
18206;SDS011;9229;52.354;20.886;2024-02-14T00:08:12;29.45;;;14.27;;
18206;SDS011;9229;52.354;20.886;2024-02-14T00:13:18;34.35;;;14.95;;
18206;SDS011;9229;52.354;20.886;2024-02-14T00:18:20;24.95;;;11.52;;
18206;SDS011;9229;52.354;20.886;2024-02-14T00:23:25;21.38;;;10.13;;
18206;SDS011;9229;52.354;20.886;2024-02-14T00:28:27;34.25;;;11.90;;
18206;SDS011;9229;52.354;20.886;2024-02-14T00:33:39;38.65;;;16.48;;
18206;SDS011;9229;52.354;20.886;2024-02-14T00:38:43;13.48;;;8.63;;
18206;SDS011;9229;52.354;20.886;2024-02-14T00:43:46;13.63;;;8.40;;
18206;SDS011;9229;52.354;20.886;2024-02-14T00:48:48;67.80;;;28.67;;
18206;SDS011;9229;52.354;20.886;2024-02-14T00:53:52;29.73;;;13.18;;
18206;SDS011;9229;52.354;20.886;2024-02-14T00:58:56;25.17;;;11.57;;
18206;SDS011;9229;52.354;20.886;2024-02-14T01:04:01;20.48;;;9.93;;
18206;SDS011;9229;52.354;20.886;2024-02-14T01:09:04;19.77;;;10.20;;
18206;SDS011;9229;52.354;20.886;2024-02-14T01:14:06;18.77;;;9.50;;
18206;SDS011;9229;52.354;20.886;2024-02-14T01:19:16;35.30;;;18.42;;
18206;SDS011;9229;52.354;20.886;2024-02-14T01:24:21;54.65;;;23.98;;
18206;SDS011;9229;52.354;20.886;2024-02-14T01:29:27;45.28;;;20.80;;
18206;SDS011;9229;52.354;20.886;2024-02-14T01:34:29;31.10;;;15.05;;
18206;SDS011;9229;52.354;20.886;2024-02-14T01:39:37;27.70;;;15.02;;
18206;SDS011;9229;52.354;20.886;2024-02-14T01:44:41;17.60;;;11.00;;
18206;SDS011;9229;52.354;20.886;2024-02-14T01:49:44;18.73;;;9.27;;
18206;SDS011;9229;52.354;20.886;2024-02-14T01:54:48;17.40;;;8.55;;
18206;SDS011;9229;52.354;20.886;2024-02-14T01:59:55;13.15;;;7.18;;
18206;SDS011;9229;52.354;20.886;2024-02-14T02:05:00;12.05;;;8.05;;
18206;SDS011;9229;52.354;20.886;2024-02-14T02:10:07;14.32;;;8.02;;
18206;SDS011;9229;52.354;20.886;2024-02-14T02:15:11;11.93;;;7.15;;
18206;SDS011;9229;52.354;20.886;2024-02-14T02:20:14;14.25;;;7.40;;
18206;SDS011;9229;52.354;20.886;2024-02-14T02:25:25;12.75;;;7.82;;
18206;SDS011;9229;52.354;20.886;2024-02-14T02:30:27;13.73;;;7.85;;
18206;SDS011;9229;52.354;20.886;2024-02-14T02:35:31;14.50;;;7.88;;
18206;SDS011;9229;52.354;20.886;2024-02-14T02:40:35;14.90;;;7.45;;
18206;SDS011;9229;52.354;20.886;2024-02-14T02:45:38;18.63;;;7.47;;
18206;SDS011;9229;52.354;20.886;2024-02-14T02:50:41;20.73;;;7.85;;
18206;SDS011;9229;52.354;20.886;2024-02-14T02:55:48;15.27;;;7.38;;
18206;SDS011;9229;52.354;20.886;2024-02-14T03:00:52;14.60;;;7.10;;
18206;SDS011;9229;52.354;20.886;2024-02-14T03:05:57;17.40;;;8.63;;
18206;SDS011;9229;52.354;20.886;2024-02-14T03:11:07;23.75;;;7.45;;
18206;SDS011;9229;52.354;20.886;2024-02-14T03:16:23;13.80;;;7.25;;
18206;SDS011;9229;52.354;20.886;2024-02-14T03:21:27;23.77;;;10.50;;
18206;SDS011;9229;52.354;20.886;2024-02-14T03:26:31;31.15;;;14.57;;
18206;SDS011;9229;52.354;20.886;2024-02-14T03:31:34;19.75;;;11.07;;
18206;SDS011;9229;52.354;20.886;2024-02-14T03:36:37;22.80;;;11.27;;
18206;SDS011;9229;52.354;20.886;2024-02-14T03:41:42;27.02;;;13.50;;
18206;SDS011;9229;52.354;20.886;2024-02-14T03:46:48;42.03;;;14.02;;
18206;SDS011;9229;52.354;20.886;2024-02-14T03:51:52;17.92;;;9.70;;
18206;SDS011;9229;52.354;20.886;2024-02-14T03:56:57;15.00;;;7.93;;
18206;SDS011;9229;52.354;20.886;2024-02-14T04:02:00;16.42;;;7.57;;
18206;SDS011;9229;52.354;20.886;2024-02-14T04:07:04;8.18;;;6.75;;
18206;SDS011;9229;52.354;20.886;2024-02-14T04:12:10;11.85;;;6.53;;
18206;SDS011;9229;52.354;20.886;2024-02-14T04:17:12;17.05;;;9.07;;
18206;SDS011;9229;52.354;20.886;2024-02-14T04:22:14;18.67;;;8.07;;
18206;SDS011;9229;52.354;20.886;2024-02-14T04:27:18;16.15;;;8.30;;
18206;SDS011;9229;52.354;20.886;2024-02-14T04:32:23;12.98;;;8.00;;
18206;SDS011;9229;52.354;20.886;2024-02-14T04:37:29;24.88;;;10.25;;
18206;SDS011;9229;52.354;20.886;2024-02-14T04:42:34;22.60;;;10.65;;
18206;SDS011;9229;52.354;20.886;2024-02-14T04:47:36;18.90;;;10.82;;
18206;SDS011;9229;52.354;20.886;2024-02-14T04:52:40;16.85;;;10.45;;
18206;SDS011;9229;52.354;20.886;2024-02-14T04:57:43;20.35;;;9.35;;
18206;SDS011;9229;52.354;20.886;2024-02-14T05:02:50;22.05;;;10.73;;
18206;SDS011;9229;52.354;20.886;2024-02-14T05:07:52;15.38;;;9.45;;
18206;SDS011;9229;52.354;20.886;2024-02-14T05:13:00;19.15;;;10.25;;
18206;SDS011;9229;52.354;20.886;2024-02-14T05:18:06;25.90;;;11.63;;
18206;SDS011;9229;52.354;20.886;2024-02-14T05:23:10;28.05;;;11.82;;
18206;SDS011;9229;52.354;20.886;2024-02-14T05:28:14;26.52;;;12.32;;
18206;SDS011;9229;52.354;20.886;2024-02-14T05:33:18;32.22;;;11.98;;
18206;SDS011;9229;52.354;20.886;2024-02-14T05:38:23;26.90;;;13.27;;
18206;SDS011;9229;52.354;20.886;2024-02-14T05:43:27;38.50;;;15.23;;
18206;SDS011;9229;52.354;20.886;2024-02-14T05:48:29;27.13;;;12.93;;
18206;SDS011;9229;52.354;20.886;2024-02-14T05:53:31;23.98;;;13.13;;
18206;SDS011;9229;52.354;20.886;2024-02-14T05:58:35;24.73;;;12.52;;
18206;SDS011;9229;52.354;20.886;2024-02-14T06:03:37;26.45;;;12.90;;
18206;SDS011;9229;52.354;20.886;2024-02-14T06:08:39;27.85;;;13.50;;
18206;SDS011;9229;52.354;20.886;2024-02-14T06:14:06;29.73;;;14.35;;
18206;SDS011;9229;52.354;20.886;2024-02-14T06:19:09;39.97;;;15.00;;
18206;SDS011;9229;52.354;20.886;2024-02-14T06:24:11;34.75;;;14.63;;
18206;SDS011;9229;52.354;20.886;2024-02-14T06:29:15;28.77;;;14.18;;
18206;SDS011;9229;52.354;20.886;2024-02-14T06:34:18;29.55;;;13.68;;
18206;SDS011;9229;52.354;20.886;2024-02-14T06:39:20;32.95;;;13.93;;
18206;SDS011;9229;52.354;20.886;2024-02-14T06:44:23;24.67;;;14.43;;
18206;SDS011;9229;52.354;20.886;2024-02-14T06:49:25;37.03;;;15.48;;
18206;SDS011;9229;52.354;20.886;2024-02-14T06:54:28;30.98;;;15.43;;
18206;SDS011;9229;52.354;20.886;2024-02-14T06:59:32;30.63;;;14.70;;
18206;SDS011;9229;52.354;20.886;2024-02-14T07:04:34;32.72;;;15.32;;
18206;SDS011;9229;52.354;20.886;2024-02-14T07:09:37;28.55;;;14.90;;
18206;SDS011;9229;52.354;20.886;2024-02-14T07:14:40;29.40;;;15.30;;
18206;SDS011;9229;52.354;20.886;2024-02-14T07:19:42;29.85;;;15.70;;
18206;SDS011;9229;52.354;20.886;2024-02-14T07:24:50;29.35;;;15.95;;
18206;SDS011;9229;52.354;20.886;2024-02-14T07:29:55;31.63;;;16.63;;
18206;SDS011;9229;52.354;20.886;2024-02-14T07:34:57;31.35;;;16.45;;
18206;SDS011;9229;52.354;20.886;2024-02-14T07:39:59;26.63;;;14.90;;
18206;SDS011;9229;52.354;20.886;2024-02-14T07:45:03;26.48;;;14.73;;
18206;SDS011;9229;52.354;20.886;2024-02-14T07:50:05;34.75;;;15.07;;
18206;SDS011;9229;52.354;20.886;2024-02-14T07:55:08;28.95;;;15.20;;
18206;SDS011;9229;52.354;20.886;2024-02-14T08:00:13;32.50;;;15.15;;
18206;SDS011;9229;52.354;20.886;2024-02-14T08:05:22;34.22;;;15.43;;
18206;SDS011;9229;52.354;20.886;2024-02-14T08:10:25;30.38;;;14.05;;
18206;SDS011;9229;52.354;20.886;2024-02-14T08:15:28;34.53;;;14.55;;
18206;SDS011;9229;52.354;20.886;2024-02-14T08:20:30;33.38;;;15.00;;
18206;SDS011;9229;52.354;20.886;2024-02-14T08:25:32;21.48;;;12.10;;
18206;SDS011;9229;52.354;20.886;2024-02-14T08:30:35;27.83;;;13.68;;
18206;SDS011;9229;52.354;20.886;2024-02-14T08:35:38;25.15;;;12.98;;
18206;SDS011;9229;52.354;20.886;2024-02-14T08:40:40;22.95;;;12.38;;
18206;SDS011;9229;52.354;20.886;2024-02-14T08:45:43;23.23;;;11.93;;
18206;SDS011;9229;52.354;20.886;2024-02-14T08:50:45;20.55;;;12.02;;
18206;SDS011;9229;52.354;20.886;2024-02-14T08:55:48;17.33;;;10.55;;
18206;SDS011;9229;52.354;20.886;2024-02-14T09:00:51;17.60;;;10.23;;
18206;SDS011;9229;52.354;20.886;2024-02-14T09:05:54;20.40;;;10.50;;
18206;SDS011;9229;52.354;20.886;2024-02-14T09:10:57;16.88;;;10.20;;
18206;SDS011;9229;52.354;20.886;2024-02-14T09:16:01;13.85;;;8.18;;
18206;SDS011;9229;52.354;20.886;2024-02-14T09:21:03;17.17;;;8.07;;
18206;SDS011;9229;52.354;20.886;2024-02-14T09:26:06;13.98;;;7.80;;
18206;SDS011;9229;52.354;20.886;2024-02-14T09:31:09;17.02;;;8.13;;
18206;SDS011;9229;52.354;20.886;2024-02-14T09:36:12;8.98;;;7.05;;
18206;SDS011;9229;52.354;20.886;2024-02-14T09:41:15;11.50;;;7.50;;
18206;SDS011;9229;52.354;20.886;2024-02-14T09:46:25;11.05;;;6.82;;
18206;SDS011;9229;52.354;20.886;2024-02-14T09:51:27;8.65;;;5.53;;
18206;SDS011;9229;52.354;20.886;2024-02-14T09:56:30;6.80;;;4.72;;
18206;SDS011;9229;52.354;20.886;2024-02-14T10:01:34;5.70;;;5.20;;
18206;SDS011;9229;52.354;20.886;2024-02-14T10:06:36;4.35;;;3.78;;
18206;SDS011;9229;52.354;20.886;2024-02-14T10:11:38;4.78;;;4.32;;
18206;SDS011;9229;52.354;20.886;2024-02-14T10:16:42;5.30;;;4.13;;
18206;SDS011;9229;52.354;20.886;2024-02-14T10:21:54;10.20;;;4.38;;
18206;SDS011;9229;52.354;20.886;2024-02-14T10:26:58;7.18;;;4.07;;
18206;SDS011;9229;52.354;20.886;2024-02-14T10:32:02;12.82;;;4.90;;
18206;SDS011;9229;52.354;20.886;2024-02-14T10:37:05;6.15;;;4.55;;
18206;SDS011;9229;52.354;20.886;2024-02-14T10:42:07;4.70;;;4.20;;
18206;SDS011;9229;52.354;20.886;2024-02-14T10:47:11;5.75;;;3.80;;
18206;SDS011;9229;52.354;20.886;2024-02-14T10:52:18;7.93;;;3.90;;
18206;SDS011;9229;52.354;20.886;2024-02-14T10:57:22;4.75;;;4.28;;
18206;SDS011;9229;52.354;20.886;2024-02-14T11:02:26;4.97;;;3.38;;
18206;SDS011;9229;52.354;20.886;2024-02-14T11:07:32;11.13;;;5.13;;
18206;SDS011;9229;52.354;20.886;2024-02-14T11:12:35;6.45;;;3.97;;
18206;SDS011;9229;52.354;20.886;2024-02-14T11:17:40;6.00;;;3.55;;
18206;SDS011;9229;52.354;20.886;2024-02-14T11:22:56;5.13;;;3.55;;
18206;SDS011;9229;52.354;20.886;2024-02-14T11:28:00;3.90;;;3.58;;
18206;SDS011;9229;52.354;20.886;2024-02-14T11:33:18;5.95;;;3.35;;
18206;SDS011;9229;52.354;20.886;2024-02-14T11:38:21;3.13;;;2.78;;
18206;SDS011;9229;52.354;20.886;2024-02-14T11:43:23;5.50;;;3.08;;
18206;SDS011;9229;52.354;20.886;2024-02-14T11:48:27;3.88;;;3.42;;
18206;SDS011;9229;52.354;20.886;2024-02-14T11:53:30;3.70;;;3.10;;
18206;SDS011;9229;52.354;20.886;2024-02-14T11:58:33;3.28;;;2.40;;
18206;SDS011;9229;52.354;20.886;2024-02-14T12:03:37;2.88;;;2.60;;
18206;SDS011;9229;52.354;20.886;2024-02-14T12:08:40;2.65;;;2.45;;
18206;SDS011;9229;52.354;20.886;2024-02-14T12:13:42;3.45;;;2.63;;
18206;SDS011;9229;52.354;20.886;2024-02-14T12:18:46;5.40;;;2.30;;
18206;SDS011;9229;52.354;20.886;2024-02-14T12:23:48;5.28;;;2.67;;
18206;SDS011;9229;52.354;20.886;2024-02-14T12:29:00;2.72;;;2.53;;
18206;SDS011;9229;52.354;20.886;2024-02-14T12:34:05;21.00;;;4.95;;
18206;SDS011;9229;52.354;20.886;2024-02-14T12:39:07;4.60;;;2.90;;
18206;SDS011;9229;52.354;20.886;2024-02-14T12:44:12;8.40;;;2.65;;
18206;SDS011;9229;52.354;20.886;2024-02-14T12:49:16;5.65;;;2.95;;
18206;SDS011;9229;52.354;20.886;2024-02-14T12:54:18;3.92;;;3.03;;
18206;SDS011;9229;52.354;20.886;2024-02-14T12:59:21;2.90;;;2.70;;
18206;SDS011;9229;52.354;20.886;2024-02-14T13:04:24;5.60;;;3.10;;
18206;SDS011;9229;52.354;20.886;2024-02-14T13:09:26;5.10;;;3.00;;
18206;SDS011;9229;52.354;20.886;2024-02-14T13:14:29;7.93;;;3.22;;
18206;SDS011;9229;52.354;20.886;2024-02-14T13:19:37;8.43;;;3.35;;
18206;SDS011;9229;52.354;20.886;2024-02-14T13:24:40;3.85;;;2.97;;
18206;SDS011;9229;52.354;20.886;2024-02-14T13:29:44;3.45;;;3.17;;
18206;SDS011;9229;52.354;20.886;2024-02-14T13:34:48;7.10;;;2.90;;
18206;SDS011;9229;52.354;20.886;2024-02-14T13:39:51;7.88;;;3.10;;
18206;SDS011;9229;52.354;20.886;2024-02-14T13:44:54;5.07;;;3.28;;
18206;SDS011;9229;52.354;20.886;2024-02-14T13:49:57;3.55;;;3.25;;
18206;SDS011;9229;52.354;20.886;2024-02-14T13:55:00;3.22;;;3.03;;
18206;SDS011;9229;52.354;20.886;2024-02-14T14:00:03;3.47;;;3.10;;
18206;SDS011;9229;52.354;20.886;2024-02-14T14:05:14;3.60;;;3.15;;
18206;SDS011;9229;52.354;20.886;2024-02-14T14:10:17;4.18;;;3.42;;
18206;SDS011;9229;52.354;20.886;2024-02-14T14:15:19;3.60;;;3.30;;
18206;SDS011;9229;52.354;20.886;2024-02-14T14:20:23;6.22;;;3.42;;
18206;SDS011;9229;52.354;20.886;2024-02-14T14:25:25;3.40;;;3.13;;
18206;SDS011;9229;52.354;20.886;2024-02-14T14:30:28;6.07;;;3.20;;
18206;SDS011;9229;52.354;20.886;2024-02-14T14:35:32;3.53;;;3.17;;
18206;SDS011;9229;52.354;20.886;2024-02-14T14:40:36;3.90;;;3.20;;
18206;SDS011;9229;52.354;20.886;2024-02-14T14:45:38;4.90;;;3.60;;
18206;SDS011;9229;52.354;20.886;2024-02-14T14:50:43;5.30;;;3.45;;
18206;SDS011;9229;52.354;20.886;2024-02-14T14:55:50;12.35;;;3.55;;
18206;SDS011;9229;52.354;20.886;2024-02-14T15:00:53;3.95;;;3.65;;
18206;SDS011;9229;52.354;20.886;2024-02-14T15:05:58;6.65;;;3.70;;
18206;SDS011;9229;52.354;20.886;2024-02-14T15:11:00;6.65;;;3.65;;
18206;SDS011;9229;52.354;20.886;2024-02-14T15:16:05;5.07;;;4.30;;
18206;SDS011;9229;52.354;20.886;2024-02-14T15:21:09;5.80;;;4.18;;
18206;SDS011;9229;52.354;20.886;2024-02-14T15:26:11;6.82;;;4.57;;
18206;SDS011;9229;52.354;20.886;2024-02-14T15:31:17;8.48;;;5.80;;
18206;SDS011;9229;52.354;20.886;2024-02-14T15:36:38;12.73;;;5.75;;
18206;SDS011;9229;52.354;20.886;2024-02-14T15:41:40;10.90;;;5.13;;
18206;SDS011;9229;52.354;20.886;2024-02-14T15:46:42;11.13;;;5.22;;
18206;SDS011;9229;52.354;20.886;2024-02-14T15:51:46;10.05;;;5.35;;
18206;SDS011;9229;52.354;20.886;2024-02-14T15:56:49;10.98;;;5.53;;
18206;SDS011;9229;52.354;20.886;2024-02-14T16:01:51;12.25;;;5.63;;
18206;SDS011;9229;52.354;20.886;2024-02-14T16:06:54;12.73;;;5.97;;
18206;SDS011;9229;52.354;20.886;2024-02-14T16:11:57;10.50;;;5.55;;
18206;SDS011;9229;52.354;20.886;2024-02-14T16:16:59;10.63;;;5.82;;
18206;SDS011;9229;52.354;20.886;2024-02-14T16:22:03;10.98;;;6.18;;
18206;SDS011;9229;52.354;20.886;2024-02-14T16:27:05;15.65;;;7.60;;
18206;SDS011;9229;52.354;20.886;2024-02-14T16:32:07;13.57;;;7.63;;
18206;SDS011;9229;52.354;20.886;2024-02-14T16:37:14;10.35;;;7.43;;
18206;SDS011;9229;52.354;20.886;2024-02-14T16:42:19;12.52;;;8.13;;
18206;SDS011;9229;52.354;20.886;2024-02-14T16:47:22;18.00;;;8.77;;
18206;SDS011;9229;52.354;20.886;2024-02-14T16:52:26;27.83;;;9.70;;
18206;SDS011;9229;52.354;20.886;2024-02-14T16:57:29;20.20;;;9.10;;
18206;SDS011;9229;52.354;20.886;2024-02-14T17:02:31;22.60;;;9.80;;
18206;SDS011;9229;52.354;20.886;2024-02-14T17:07:35;20.55;;;9.57;;
18206;SDS011;9229;52.354;20.886;2024-02-14T17:12:37;18.02;;;9.80;;
18206;SDS011;9229;52.354;20.886;2024-02-14T17:17:39;13.73;;;9.00;;
18206;SDS011;9229;52.354;20.886;2024-02-14T17:22:43;20.17;;;8.48;;
18206;SDS011;9229;52.354;20.886;2024-02-14T17:27:45;16.08;;;8.68;;
18206;SDS011;9229;52.354;20.886;2024-02-14T17:32:48;19.85;;;9.13;;
18206;SDS011;9229;52.354;20.886;2024-02-14T17:37:51;13.77;;;7.85;;
18206;SDS011;9229;52.354;20.886;2024-02-14T17:42:54;17.58;;;7.90;;
18206;SDS011;9229;52.354;20.886;2024-02-14T17:47:56;20.35;;;8.95;;
18206;SDS011;9229;52.354;20.886;2024-02-14T17:52:59;14.45;;;8.48;;
18206;SDS011;9229;52.354;20.886;2024-02-14T17:58:02;19.45;;;10.00;;
18206;SDS011;9229;52.354;20.886;2024-02-14T18:03:05;27.38;;;11.30;;
18206;SDS011;9229;52.354;20.886;2024-02-14T18:08:08;28.92;;;10.75;;
18206;SDS011;9229;52.354;20.886;2024-02-14T18:13:11;23.17;;;10.30;;
18206;SDS011;9229;52.354;20.886;2024-02-14T18:18:13;17.40;;;9.20;;
18206;SDS011;9229;52.354;20.886;2024-02-14T18:23:20;22.38;;;8.90;;
18206;SDS011;9229;52.354;20.886;2024-02-14T18:28:22;17.83;;;8.48;;
18206;SDS011;9229;52.354;20.886;2024-02-14T18:33:25;16.63;;;8.07;;
18206;SDS011;9229;52.354;20.886;2024-02-14T18:38:30;10.73;;;6.47;;
18206;SDS011;9229;52.354;20.886;2024-02-14T18:43:32;11.38;;;6.78;;
18206;SDS011;9229;52.354;20.886;2024-02-14T18:48:34;18.17;;;6.93;;
18206;SDS011;9229;52.354;20.886;2024-02-14T18:53:41;10.45;;;6.32;;
18206;SDS011;9229;52.354;20.886;2024-02-14T18:58:46;14.18;;;6.60;;
18206;SDS011;9229;52.354;20.886;2024-02-14T19:03:51;15.50;;;7.18;;
18206;SDS011;9229;52.354;20.886;2024-02-14T19:08:55;9.63;;;6.57;;
18206;SDS011;9229;52.354;20.886;2024-02-14T19:13:57;11.07;;;5.47;;
18206;SDS011;9229;52.354;20.886;2024-02-14T19:18:59;9.82;;;5.82;;
18206;SDS011;9229;52.354;20.886;2024-02-14T19:24:02;8.75;;;6.28;;
18206;SDS011;9229;52.354;20.886;2024-02-14T19:29:05;8.85;;;5.80;;
18206;SDS011;9229;52.354;20.886;2024-02-14T19:34:07;10.45;;;7.00;;
18206;SDS011;9229;52.354;20.886;2024-02-14T19:39:11;12.77;;;7.22;;
18206;SDS011;9229;52.354;20.886;2024-02-14T19:44:15;11.55;;;6.57;;
18206;SDS011;9229;52.354;20.886;2024-02-14T19:49:18;15.32;;;7.85;;
18206;SDS011;9229;52.354;20.886;2024-02-14T19:54:22;15.63;;;7.85;;
18206;SDS011;9229;52.354;20.886;2024-02-14T19:59:24;16.73;;;7.65;;
18206;SDS011;9229;52.354;20.886;2024-02-14T20:04:27;11.27;;;6.95;;
18206;SDS011;9229;52.354;20.886;2024-02-14T20:09:31;11.90;;;6.88;;
18206;SDS011;9229;52.354;20.886;2024-02-14T20:14:33;14.02;;;7.68;;
18206;SDS011;9229;52.354;20.886;2024-02-14T20:19:37;14.75;;;8.32;;
18206;SDS011;9229;52.354;20.886;2024-02-14T20:24:42;15.68;;;8.40;;
18206;SDS011;9229;52.354;20.886;2024-02-14T20:29:47;18.80;;;8.35;;
18206;SDS011;9229;52.354;20.886;2024-02-14T20:34:50;17.25;;;8.52;;
18206;SDS011;9229;52.354;20.886;2024-02-14T20:39:53;11.57;;;8.20;;
18206;SDS011;9229;52.354;20.886;2024-02-14T20:44:55;17.52;;;8.65;;
18206;SDS011;9229;52.354;20.886;2024-02-14T20:49:58;19.35;;;8.82;;
18206;SDS011;9229;52.354;20.886;2024-02-14T20:55:02;14.23;;;8.00;;
18206;SDS011;9229;52.354;20.886;2024-02-14T21:00:05;15.07;;;9.02;;
18206;SDS011;9229;52.354;20.886;2024-02-14T21:05:08;19.70;;;8.85;;
18206;SDS011;9229;52.354;20.886;2024-02-14T21:10:12;15.13;;;8.35;;
18206;SDS011;9229;52.354;20.886;2024-02-14T21:15:14;18.92;;;9.07;;
18206;SDS011;9229;52.354;20.886;2024-02-14T21:20:17;14.35;;;8.38;;
18206;SDS011;9229;52.354;20.886;2024-02-14T21:25:21;16.02;;;8.40;;
18206;SDS011;9229;52.354;20.886;2024-02-14T21:30:23;15.73;;;7.97;;
18206;SDS011;9229;52.354;20.886;2024-02-14T21:35:26;13.38;;;7.60;;
18206;SDS011;9229;52.354;20.886;2024-02-14T21:40:33;19.13;;;8.75;;
18206;SDS011;9229;52.354;20.886;2024-02-14T21:45:37;16.85;;;8.23;;
18206;SDS011;9229;52.354;20.886;2024-02-14T21:50:39;17.50;;;8.68;;
18206;SDS011;9229;52.354;20.886;2024-02-14T21:55:44;14.93;;;8.18;;
18206;SDS011;9229;52.354;20.886;2024-02-14T22:00:46;14.18;;;8.48;;
18206;SDS011;9229;52.354;20.886;2024-02-14T22:05:49;16.83;;;8.25;;
18206;SDS011;9229;52.354;20.886;2024-02-14T22:10:54;16.52;;;8.38;;
18206;SDS011;9229;52.354;20.886;2024-02-14T22:15:58;14.85;;;7.85;;
18206;SDS011;9229;52.354;20.886;2024-02-14T22:21:01;14.32;;;8.07;;
18206;SDS011;9229;52.354;20.886;2024-02-14T22:26:08;14.50;;;7.78;;
18206;SDS011;9229;52.354;20.886;2024-02-14T22:31:12;14.15;;;8.15;;
18206;SDS011;9229;52.354;20.886;2024-02-14T22:36:14;13.98;;;7.78;;
18206;SDS011;9229;52.354;20.886;2024-02-14T22:41:18;17.95;;;8.75;;
18206;SDS011;9229;52.354;20.886;2024-02-14T22:46:22;14.30;;;8.55;;
18206;SDS011;9229;52.354;20.886;2024-02-14T22:51:24;11.55;;;6.95;;
18206;SDS011;9229;52.354;20.886;2024-02-14T22:56:27;17.45;;;8.05;;
18206;SDS011;9229;52.354;20.886;2024-02-14T23:01:32;16.90;;;7.93;;
18206;SDS011;9229;52.354;20.886;2024-02-14T23:06:35;12.45;;;8.00;;
18206;SDS011;9229;52.354;20.886;2024-02-14T23:11:44;10.75;;;6.85;;
18206;SDS011;9229;52.354;20.886;2024-02-14T23:16:46;15.70;;;7.68;;
18206;SDS011;9229;52.354;20.886;2024-02-14T23:21:48;14.70;;;7.85;;
18206;SDS011;9229;52.354;20.886;2024-02-14T23:26:54;14.82;;;7.65;;
18206;SDS011;9229;52.354;20.886;2024-02-14T23:31:57;12.35;;;7.40;;
18206;SDS011;9229;52.354;20.886;2024-02-14T23:37:00;19.05;;;7.82;;
18206;SDS011;9229;52.354;20.886;2024-02-14T23:42:05;11.55;;;7.55;;
18206;SDS011;9229;52.354;20.886;2024-02-14T23:47:09;17.40;;;7.40;;
18206;SDS011;9229;52.354;20.886;2024-02-14T23:52:13;13.50;;;8.02;;
18206;SDS011;9229;52.354;20.886;2024-02-14T23:57:17;14.43;;;8.05;;
